Parkman, Maine
Current Conditions -  °F | °C
As of 9:53 PM on Wednesday 22 Oct 2014 (Local Time) from KBGR Reporting Station
Drizzle Drizzle  
Wind Chill: 39°   Ceiling: 900
Heat Index: 45°   Visibility: 5mi
Dew Point: 43°   Wind: 13mph
Humidity: 93%   Direction: 30°NNE
Pressure: 30.12"   Gusts: NA
Location:  45.2519°N, 69.3542°W
Report Text: KBGR 230153Z 03011KT 5SM -DZ BR BKN009 OVC013 07/06 A3012 RMK AO2 RAE37DZB50 SLP200 P0001 T00720061
Loading
Personal Weather Stations






























Interactive Weather Map
Tropical Storm Tracking
New forecast layout! Learn more

10-Day Weather Forecast

Advertisements
Track Severe Weather on mobile